createdAt,value
2023-04-04T00:00:14.945Z,2.29
2023-04-04T00:02:41.569Z,2.27
2023-04-04T00:05:08.696Z,2.24
2023-04-04T00:07:35.251Z,2.22
2023-04-04T00:10:01.943Z,2.17
2023-04-04T00:12:29.911Z,2.14
2023-04-04T00:14:57.489Z,2.07
2023-04-04T00:17:24.006Z,2.03
2023-04-04T00:19:50.619Z,1.97
2023-04-04T00:22:18.120Z,1.93
2023-04-04T00:24:44.497Z,1.90
2023-04-04T00:27:10.979Z,1.90
2023-04-04T00:29:37.360Z,1.89
2023-04-04T00:32:04.020Z,1.88
2023-04-04T00:34:30.465Z,1.84
2023-04-04T00:36:56.817Z,1.79
2023-04-04T00:39:23.745Z,1.75
2023-04-04T00:41:50.403Z,1.70
2023-04-04T00:44:17.075Z,1.63
2023-04-04T00:46:43.906Z,1.59
2023-04-04T00:49:10.440Z,1.54
2023-04-04T00:51:36.901Z,1.52
2023-04-04T00:54:03.992Z,1.48
2023-04-04T00:56:33.093Z,1.48
2023-04-04T00:59:00.888Z,1.46
2023-04-04T01:01:27.515Z,1.42
2023-04-04T01:03:54.527Z,1.41
2023-04-04T01:06:21.181Z,1.39
2023-04-04T01:08:48.981Z,1.38
2023-04-04T01:11:16.722Z,1.37
2023-04-04T01:13:43.992Z,1.36
2023-04-04T01:16:10.502Z,1.35
2023-04-04T01:18:38.355Z,1.36
2023-04-04T01:21:10.877Z,1.35
2023-04-04T01:23:51.886Z,1.35
2023-04-04T01:26:21.156Z,1.32
2023-04-04T01:28:47.629Z,1.31
2023-04-04T01:31:18.144Z,1.32
2023-04-04T01:33:48.958Z,1.30
2023-04-04T01:36:25.821Z,1.31
2023-04-04T01:39:07.861Z,1.30
2023-04-04T01:41:35.423Z,1.29
2023-04-04T01:44:02.969Z,1.27
2023-04-04T01:46:29.531Z,1.24
2023-04-04T01:48:56.074Z,1.20
2023-04-04T01:51:23.826Z,1.13
2023-04-04T01:53:50.368Z,1.11
2023-04-04T01:56:16.906Z,1.07
2023-04-04T01:58:43.484Z,1.03
2023-04-04T02:01:09.948Z,1.02
2023-04-04T02:03:36.584Z,1.01
2023-04-04T02:06:03.131Z,1.03
2023-04-04T02:08:29.573Z,1.05
2023-04-04T02:10:59.092Z,1.11
2023-04-04T02:13:25.539Z,1.12
2023-04-04T02:15:52.424Z,1.13
2023-04-04T02:18:19.265Z,1.13
2023-04-04T02:20:45.652Z,1.13
2023-04-04T02:23:12.086Z,1.11
2023-04-04T02:25:38.494Z,1.09
2023-04-04T02:28:05.054Z,1.06
2023-04-04T02:30:31.647Z,1.05
2023-04-04T02:32:59.701Z,1.02
2023-04-04T02:35:26.459Z,1.00
2023-04-04T02:37:52.891Z,1.00
2023-04-04T02:40:19.389Z,0.99
2023-04-04T02:42:45.942Z,0.97
2023-04-04T02:45:14.357Z,0.95
2023-04-04T02:47:42.522Z,0.90
2023-04-04T02:50:12.158Z,0.88
2023-04-04T02:52:38.595Z,0.82
2023-04-04T02:55:06.122Z,0.80
2023-04-04T02:57:32.690Z,0.79
2023-04-04T02:59:59.174Z,0.76
2023-04-04T03:02:26.187Z,0.74
2023-04-04T03:04:52.979Z,0.74
2023-04-04T03:07:19.413Z,0.76
2023-04-04T03:09:45.820Z,0.76
2023-04-04T03:12:12.390Z,0.75
2023-04-04T03:14:38.856Z,0.73
2023-04-04T03:17:06.281Z,0.69
2023-04-04T03:19:33.089Z,0.71
2023-04-04T03:21:59.562Z,0.69
2023-04-04T03:24:25.967Z,0.68
2023-04-04T03:26:52.385Z,0.67
2023-04-04T03:29:18.850Z,0.64
2023-04-04T03:31:46.526Z,0.62
2023-04-04T03:34:13.094Z,0.58
2023-04-04T03:36:39.503Z,0.55
2023-04-04T03:39:05.959Z,0.53
2023-04-04T03:41:32.447Z,0.48
2023-04-04T03:43:58.890Z,0.43
2023-04-04T03:46:25.456Z,0.37
2023-04-04T03:48:52.075Z,0.32
2023-04-04T03:51:25.474Z,0.26
2023-04-04T03:53:51.892Z,0.21
2023-04-04T03:56:18.717Z,0.19
2023-04-04T03:58:45.820Z,0.17
2023-04-04T04:01:12.227Z,0.19
2023-04-04T04:03:38.684Z,0.21
2023-04-04T04:06:05.230Z,0.23
2023-04-04T04:08:31.652Z,0.24
2023-04-04T04:11:06.869Z,0.26
2023-04-04T04:13:38.754Z,0.27
2023-04-04T04:16:06.114Z,0.26
2023-04-04T04:18:33.618Z,0.26
2023-04-04T04:21:02.661Z,0.25
2023-04-04T04:23:29.602Z,0.23
2023-04-04T04:25:56.346Z,0.19
2023-04-04T04:28:34.188Z,0.18
2023-04-04T04:31:08.507Z,0.13
2023-04-04T04:33:35.767Z,0.09
2023-04-04T04:36:03.690Z,0.08
2023-04-04T04:38:30.578Z,0.09
2023-04-04T04:40:57.487Z,0.10
2023-04-04T04:43:24.336Z,0.11
2023-04-04T04:45:51.260Z,0.11
2023-04-04T04:48:18.202Z,0.12
2023-04-04T04:50:45.969Z,0.10
2023-04-04T04:53:13.015Z,0.12
2023-04-04T04:55:39.771Z,0.14
2023-04-04T04:58:06.917Z,0.12
2023-04-04T05:00:33.355Z,0.13
2023-04-04T05:03:00.867Z,0.12
2023-04-04T05:05:28.151Z,0.10
2023-04-04T05:07:54.586Z,0.05
2023-04-04T05:10:21.048Z,0.00
2023-04-04T05:12:48.102Z,-0.03
2023-04-04T05:15:14.706Z,-0.05
2023-04-04T05:17:41.398Z,-0.07
2023-04-04T05:20:08.621Z,-0.09
2023-04-04T05:22:35.133Z,-0.11
2023-04-04T05:25:01.587Z,-0.12
2023-04-04T05:27:28.043Z,-0.13
2023-04-04T05:29:54.546Z,-0.14
2023-04-04T05:32:21.102Z,-0.15
2023-04-04T05:34:47.531Z,-0.16
2023-04-04T05:37:14.168Z,-0.17
2023-04-04T05:39:40.660Z,-0.19
2023-04-04T05:42:07.155Z,-0.18
2023-04-04T05:44:33.626Z,-0.18
2023-04-04T05:47:00.047Z,-0.18
2023-04-04T05:49:26.529Z,-0.19
2023-04-04T05:51:56.452Z,-0.20
2023-04-04T05:54:23.378Z,-0.21
2023-04-04T05:56:49.818Z,-0.20
2023-04-04T05:59:16.571Z,-0.19
2023-04-04T06:01:43.128Z,-0.17
2023-04-04T06:04:09.640Z,-0.18
2023-04-04T06:06:36.073Z,-0.16
2023-04-04T06:09:02.833Z,-0.16
2023-04-04T06:11:29.997Z,-0.12
2023-04-04T06:13:56.403Z,-0.12
2023-04-04T06:16:23.445Z,-0.08
2023-04-04T06:18:50.061Z,-0.06
2023-04-04T06:21:16.439Z,-0.01
2023-04-04T06:23:42.851Z,0.05
2023-04-04T06:26:09.415Z,0.12
2023-04-04T06:28:36.618Z,0.17
2023-04-04T06:31:06.289Z,0.26
2023-04-04T06:33:32.691Z,0.35
2023-04-04T06:35:59.251Z,0.44
2023-04-04T06:38:27.419Z,0.55
2023-04-04T06:40:53.803Z,0.63
2023-04-04T06:43:20.698Z,0.73
2023-04-04T06:45:47.211Z,0.80
2023-04-04T06:48:13.640Z,0.92
2023-04-04T06:50:40.394Z,1.04
2023-04-04T06:53:07.435Z,1.16
2023-04-04T06:55:34.897Z,1.28
2023-04-04T06:58:01.976Z,1.38
2023-04-04T07:00:28.415Z,1.51
2023-04-04T07:02:59.327Z,1.62
2023-04-04T07:05:26.366Z,1.69
2023-04-04T07:07:56.959Z,1.78
2023-04-04T07:10:24.797Z,1.89
2023-04-04T07:12:51.722Z,2.00
2023-04-04T07:15:18.159Z,2.12
2023-04-04T07:17:44.597Z,2.23
2023-04-04T07:20:11.422Z,2.34
2023-04-04T07:22:39.455Z,2.48
2023-04-04T07:25:06.865Z,2.59
2023-04-04T07:27:33.265Z,2.69
2023-04-04T07:29:59.663Z,2.82
2023-04-04T07:32:26.169Z,2.93
2023-04-04T07:34:52.645Z,3.03
2023-04-04T07:37:19.173Z,3.16
2023-04-04T07:39:45.646Z,3.26
2023-04-04T07:42:12.241Z,3.39
2023-04-04T07:44:38.738Z,3.51
2023-04-04T07:47:09.941Z,3.62
2023-04-04T07:49:37.058Z,3.73
2023-04-04T07:52:04.544Z,3.85
2023-04-04T07:54:31.281Z,3.92
2023-04-04T07:56:57.679Z,3.99
2023-04-04T07:59:24.207Z,4.09
2023-04-04T08:01:50.720Z,4.19
2023-04-04T08:04:17.365Z,4.27
2023-04-04T08:06:43.886Z,4.37
2023-04-04T08:09:10.344Z,4.45
2023-04-04T08:11:37.611Z,4.56
2023-04-04T08:14:04.759Z,4.59
2023-04-04T08:16:31.350Z,4.63
2023-04-04T08:18:59.989Z,4.77
2023-04-04T08:21:26.549Z,4.86
2023-04-04T08:23:52.980Z,5.00
2023-04-04T08:26:19.390Z,5.13
2023-04-04T08:28:46.063Z,5.22
2023-04-04T08:31:12.609Z,5.30
2023-04-04T08:33:47.324Z,5.37
2023-04-04T08:36:14.748Z,5.47
2023-04-04T08:38:41.191Z,5.49
2023-04-04T08:41:07.880Z,5.48
2023-04-04T08:43:38.058Z,5.48
2023-04-04T08:46:05.975Z,5.60
2023-04-04T08:48:33.903Z,5.70
2023-04-04T08:51:01.146Z,5.79
2023-04-04T08:53:29.499Z,5.85
2023-04-04T08:55:59.579Z,5.96
2023-04-04T08:58:27.149Z,6.03
2023-04-04T09:00:54.653Z,6.12
2023-04-04T09:03:30.951Z,6.21
2023-04-04T09:05:57.883Z,6.31
2023-04-04T09:08:24.920Z,6.39
2023-04-04T09:10:53.190Z,6.46
2023-04-04T09:13:20.703Z,6.52
2023-04-04T09:15:49.887Z,6.60
2023-04-04T09:18:18.041Z,6.68
2023-04-04T09:20:46.740Z,6.78
2023-04-04T09:23:18.395Z,6.93
2023-04-04T09:25:56.240Z,6.96
2023-04-04T09:28:29.482Z,7.06
2023-04-04T09:30:55.962Z,7.17
2023-04-04T09:33:26.759Z,7.28
2023-04-04T09:36:03.440Z,7.35
2023-04-04T09:38:31.243Z,7.51
2023-04-04T09:40:58.383Z,7.57
2023-04-04T09:43:25.748Z,7.65
2023-04-04T09:45:54.972Z,7.86
2023-04-04T09:48:34.602Z,7.98
2023-04-04T09:51:04.906Z,8.12
2023-04-04T09:53:34.545Z,8.23
2023-04-04T09:56:02.854Z,8.42
2023-04-04T09:58:32.032Z,8.59
2023-04-04T10:01:03.399Z,8.73
2023-04-04T10:03:31.019Z,8.86
2023-04-04T10:06:07.045Z,9.03
2023-04-04T10:08:35.048Z,9.10
2023-04-04T10:11:10.342Z,9.29
2023-04-04T10:13:44.547Z,9.46
2023-04-04T10:16:11.849Z,9.64
2023-04-04T10:18:39.138Z,9.83
2023-04-04T10:23:37.052Z,10.13
2023-04-04T10:26:03.526Z,10.30
2023-04-04T10:28:30.023Z,10.38
2023-04-04T10:31:25.649Z,10.56
2023-04-04T10:34:17.425Z,10.70
2023-04-04T10:36:51.404Z,10.77
2023-04-04T10:39:27.708Z,10.90
2023-04-04T10:41:56.360Z,10.93
2023-04-04T10:44:39.583Z,10.87
2023-04-04T10:47:14.575Z,10.92
2023-04-04T10:49:44.969Z,11.14
2023-04-04T10:52:13.753Z,11.35
2023-04-04T10:54:41.957Z,11.43
2023-04-04T10:57:08.619Z,11.60
2023-04-04T11:00:08.637Z,11.82
2023-04-04T11:02:46.193Z,12.01
2023-04-04T11:05:18.508Z,12.14
2023-04-04T11:07:57.207Z,12.29
2023-04-04T11:10:41.300Z,12.48
2023-04-04T11:13:22.061Z,12.63
2023-04-04T11:16:13.899Z,12.56
2023-04-04T11:18:40.298Z,12.81
2023-04-04T11:21:08.542Z,12.85
2023-04-04T11:23:47.373Z,13.09
2023-04-04T11:26:16.887Z,13.03
2023-04-04T11:28:45.461Z,13.13
2023-04-04T11:31:15.763Z,13.22
2023-04-04T11:34:03.686Z,13.39
2023-04-04T11:36:36.034Z,13.61
2023-04-04T11:39:14.409Z,13.70
2023-04-04T11:41:53.019Z,13.77
2023-04-04T11:44:21.376Z,13.79
2023-04-04T11:46:50.590Z,13.79
2023-04-04T11:49:18.548Z,13.82
2023-04-04T11:51:45.804Z,13.98
2023-04-04T11:54:17.242Z,14.13
2023-04-04T11:56:45.324Z,14.15
2023-04-04T11:59:20.448Z,14.27
2023-04-04T12:01:48.892Z,14.29
2023-04-04T12:04:19.968Z,14.41
2023-04-04T12:06:57.803Z,14.52
2023-04-04T12:09:26.263Z,14.74
2023-04-04T12:11:52.849Z,14.87
2023-04-04T12:14:20.903Z,14.91
2023-04-04T12:16:53.680Z,15.07
2023-04-04T12:19:21.444Z,15.08
2023-04-04T12:21:48.768Z,15.23
2023-04-04T12:24:15.854Z,15.26
2023-04-04T12:26:44.646Z,15.23
2023-04-04T12:29:13.717Z,15.37
2023-04-04T12:31:42.863Z,15.50
2023-04-04T12:34:21.764Z,15.55
2023-04-04T12:36:49.054Z,15.66
2023-04-04T12:39:16.788Z,15.59
2023-04-04T12:41:54.092Z,15.69
2023-04-04T12:44:31.683Z,15.72
2023-04-04T12:47:00.464Z,15.68
2023-04-04T12:49:32.454Z,15.72
2023-04-04T12:52:04.952Z,15.80
2023-04-04T12:54:32.676Z,15.85
2023-04-04T12:57:01.645Z,15.94
2023-04-04T12:59:29.784Z,16.05
2023-04-04T13:01:56.586Z,16.21
2023-04-04T13:04:24.733Z,16.36
2023-04-04T13:06:51.794Z,16.41
2023-04-04T13:09:20.751Z,16.41
2023-04-04T13:12:04.480Z,16.22
2023-04-04T13:15:01.827Z,16.27
2023-04-04T13:17:47.204Z,16.31
2023-04-04T13:20:15.580Z,16.33
2023-04-04T13:22:42.801Z,16.38
2023-04-04T13:25:10.791Z,16.36
2023-04-04T13:27:38.160Z,16.39
2023-04-04T13:30:06.538Z,16.50
2023-04-04T13:32:33.819Z,16.43
2023-04-04T13:35:00.384Z,16.48
2023-04-04T13:37:28.059Z,16.47
2023-04-04T13:39:54.561Z,16.53
2023-04-04T13:42:23.260Z,16.44
2023-04-04T13:44:49.847Z,16.37
2023-04-04T13:47:16.535Z,16.24
2023-04-04T13:49:43.022Z,16.31
2023-04-04T13:52:09.444Z,16.58
2023-04-04T13:54:35.812Z,16.81
2023-04-04T13:57:02.349Z,16.90
2023-04-04T13:59:28.795Z,16.96
2023-04-04T14:01:55.679Z,17.08
2023-04-04T14:04:24.068Z,17.12
2023-04-04T14:06:50.900Z,17.25
2023-04-04T14:09:17.266Z,17.31
2023-04-04T14:11:43.788Z,17.36
2023-04-04T14:14:10.281Z,17.44
2023-04-04T14:16:36.731Z,17.25
2023-04-04T14:19:03.325Z,17.38
2023-04-04T14:21:29.817Z,17.38
2023-04-04T14:23:56.252Z,17.45
2023-04-04T14:26:22.694Z,17.53
2023-04-04T14:28:49.134Z,17.62
2023-04-04T14:31:15.614Z,17.63
2023-04-04T14:33:42.064Z,17.61
2023-04-04T14:36:08.533Z,17.67
2023-04-04T14:38:34.937Z,17.71
2023-04-04T14:41:02.006Z,17.75
2023-04-04T14:43:28.483Z,17.58
2023-04-04T14:45:55.044Z,17.87
2023-04-04T14:48:21.530Z,18.04
2023-04-04T14:50:47.959Z,18.25
2023-04-04T14:53:14.409Z,18.49
2023-04-04T14:55:41.191Z,18.06
2023-04-04T14:58:08.219Z,17.87
2023-04-04T15:00:34.864Z,17.68
2023-04-04T15:03:01.563Z,17.65
2023-04-04T15:05:28.272Z,17.67
2023-04-04T15:07:55.585Z,18.07
2023-04-04T15:10:22.170Z,18.26
2023-04-04T15:12:48.571Z,18.38
2023-04-04T15:15:15.795Z,18.64
2023-04-04T15:17:42.227Z,18.84
2023-04-04T15:20:09.566Z,18.89
2023-04-04T15:22:36.298Z,18.99
2023-04-04T15:25:02.739Z,18.78
2023-04-04T15:27:29.114Z,18.69
2023-04-04T15:29:55.556Z,18.53
2023-04-04T15:32:22.000Z,18.51
2023-04-04T15:34:48.569Z,18.49
2023-04-04T15:37:15.748Z,18.67
2023-04-04T15:39:52.312Z,18.68
2023-04-04T15:42:20.231Z,18.80
2023-04-04T15:44:46.695Z,18.94
2023-04-04T15:47:13.305Z,19.09
2023-04-04T15:49:39.773Z,19.15
2023-04-04T15:52:06.331Z,19.11
2023-04-04T15:54:32.837Z,19.13
2023-04-04T15:56:59.312Z,19.05
2023-04-04T15:59:26.393Z,18.95
2023-04-04T16:01:53.066Z,18.88
2023-04-04T16:04:19.457Z,18.86
2023-04-04T16:06:45.890Z,18.76
2023-04-04T16:09:12.289Z,18.67
2023-04-04T16:11:39.036Z,18.47
2023-04-04T16:14:08.741Z,18.28
2023-04-04T16:16:36.464Z,18.05
2023-04-04T16:19:02.929Z,17.92
2023-04-04T16:21:31.032Z,17.76
2023-04-04T16:23:57.558Z,17.56
2023-04-04T16:26:24.072Z,17.56
2023-04-04T16:28:50.800Z,17.67
2023-04-04T16:31:17.372Z,17.75
2023-04-04T16:33:44.053Z,17.91
2023-04-04T16:36:10.743Z,18.07
2023-04-04T16:38:37.157Z,18.10
2023-04-04T16:41:04.813Z,18.17
2023-04-04T16:43:31.346Z,18.41
2023-04-04T16:45:57.889Z,18.47
2023-04-04T16:48:24.333Z,18.48
2023-04-04T16:50:50.994Z,18.65
2023-04-04T16:53:17.431Z,18.66
2023-04-04T16:55:43.899Z,18.70
2023-04-04T16:58:10.355Z,18.75
2023-04-04T17:00:36.797Z,18.64
2023-04-04T17:03:03.989Z,18.75
2023-04-04T17:05:30.680Z,18.49
2023-04-04T17:07:57.132Z,18.53
2023-04-04T17:10:23.580Z,18.28
2023-04-04T17:12:51.145Z,18.21
2023-04-04T17:15:18.058Z,18.02
2023-04-04T17:17:44.885Z,17.78
2023-04-04T17:20:17.478Z,17.65
2023-04-04T17:22:45.410Z,17.57
2023-04-04T17:25:12.044Z,17.58
2023-04-04T17:27:38.444Z,17.65
2023-04-04T17:30:05.791Z,17.66
2023-04-04T17:32:33.425Z,17.57
2023-04-04T17:35:00.240Z,17.35
2023-04-04T17:37:28.553Z,17.04
2023-04-04T17:39:54.949Z,16.65
2023-04-04T17:42:21.391Z,16.20
2023-04-04T17:44:47.780Z,15.75
2023-04-04T17:47:14.249Z,15.29
2023-04-04T17:49:40.643Z,14.86
2023-04-04T17:52:07.128Z,14.44
2023-04-04T17:54:33.512Z,14.03
2023-04-04T17:57:00.331Z,13.64
2023-04-04T17:59:27.821Z,13.29
2023-04-04T18:01:54.494Z,12.93
2023-04-04T18:04:22.209Z,12.59
2023-04-04T18:06:48.676Z,12.24
2023-04-04T18:09:15.158Z,11.92
2023-04-04T18:11:41.838Z,11.60
2023-04-04T18:14:08.756Z,11.29
2023-04-04T18:16:39.064Z,10.99
2023-04-04T18:19:06.551Z,10.72
2023-04-04T18:21:33.077Z,10.48
2023-04-04T18:23:59.516Z,10.25
2023-04-04T18:26:26.019Z,10.03
2023-04-04T18:28:52.397Z,9.81
2023-04-04T18:31:18.836Z,9.63
2023-04-04T18:33:45.560Z,9.48
2023-04-04T18:36:12.001Z,9.36
2023-04-04T18:38:38.443Z,9.22
2023-04-04T18:41:05.745Z,9.06
2023-04-04T18:43:32.359Z,8.93
2023-04-04T18:45:59.590Z,8.82
2023-04-04T18:48:26.103Z,8.69
2023-04-04T18:50:52.485Z,8.56
2023-04-04T18:53:19.012Z,8.45
2023-04-04T18:55:46.201Z,8.34
2023-04-04T18:58:12.658Z,8.21
2023-04-04T19:00:39.403Z,8.10
2023-04-04T19:03:07.647Z,8.00
2023-04-04T19:05:36.820Z,7.95
2023-04-04T19:08:06.788Z,7.81
2023-04-04T19:10:34.794Z,7.73
2023-04-04T19:13:01.475Z,7.66
2023-04-04T19:15:27.946Z,7.61
2023-04-04T19:17:54.542Z,7.50
2023-04-04T19:20:21.073Z,7.47
2023-04-04T19:22:47.494Z,7.43
2023-04-04T19:25:16.465Z,7.34
2023-04-04T19:27:42.879Z,7.28
2023-04-04T19:30:33.526Z,7.19
2023-04-04T19:33:01.714Z,7.12
2023-04-04T19:36:11.052Z,7.02
2023-04-04T19:38:44.698Z,7.00
2023-04-04T19:41:16.713Z,6.95
2023-04-04T19:43:45.534Z,6.90
2023-04-04T19:46:15.291Z,6.82
2023-04-04T19:48:53.405Z,6.75
2023-04-04T19:51:20.000Z,6.69
2023-04-04T19:53:52.404Z,6.66
2023-04-04T19:56:21.572Z,6.65
2023-04-04T19:58:52.773Z,6.64
2023-04-04T20:01:24.337Z,6.65
2023-04-04T20:03:50.919Z,6.63
2023-04-04T20:06:28.228Z,6.62
2023-04-04T20:08:56.387Z,6.59
2023-04-04T20:11:29.060Z,6.56
2023-04-04T20:14:05.013Z,6.56
2023-04-04T20:16:31.911Z,6.53
2023-04-04T20:19:00.151Z,6.47
2023-04-04T20:21:31.423Z,6.42
2023-04-04T20:24:04.409Z,6.36
2023-04-04T20:26:42.587Z,6.29
2023-04-04T20:29:11.775Z,6.28
2023-04-04T20:31:44.972Z,6.25
2023-04-04T20:34:42.842Z,6.24
2023-04-04T20:37:12.257Z,6.15
2023-04-04T20:39:45.357Z,6.13
2023-04-04T20:42:18.053Z,6.12
2023-04-04T20:44:45.269Z,6.09
2023-04-04T20:47:39.402Z,6.06
2023-04-04T20:50:21.022Z,6.05
2023-04-04T20:52:51.137Z,6.04
2023-04-04T20:55:22.363Z,6.04
2023-04-04T20:57:50.302Z,6.00
2023-04-04T21:00:25.765Z,5.97
2023-04-04T21:03:08.512Z,5.97
2023-04-04T21:05:40.991Z,5.93
2023-04-04T21:08:19.757Z,5.90
2023-04-04T21:10:50.822Z,5.86
2023-04-04T21:13:26.699Z,5.86
2023-04-04T21:16:01.230Z,5.85
2023-04-04T21:18:31.732Z,5.84
2023-04-04T21:21:17.522Z,5.81
2023-04-04T21:23:51.100Z,5.81
2023-04-04T21:26:26.618Z,5.78
2023-04-04T21:28:53.723Z,5.76
2023-04-04T21:31:25.626Z,5.75
2023-04-04T21:33:56.004Z,5.74
2023-04-04T21:36:28.494Z,5.75
2023-04-04T21:38:59.928Z,5.77
2023-04-04T21:41:34.190Z,5.77
2023-04-04T21:44:03.159Z,5.78
2023-04-04T21:46:32.512Z,5.78
2023-04-04T21:48:58.989Z,5.77
2023-04-04T21:51:26.173Z,5.73
2023-04-04T21:53:52.679Z,5.70
2023-04-04T21:56:19.484Z,5.68
2023-04-04T21:58:46.032Z,5.63
2023-04-04T22:01:12.635Z,5.59
2023-04-04T22:03:39.448Z,5.57
2023-04-04T22:06:06.753Z,5.56
2023-04-04T22:08:33.353Z,5.54
2023-04-04T22:11:02.096Z,5.52
2023-04-04T22:13:35.418Z,5.51
2023-04-04T22:16:04.494Z,5.50
2023-04-04T22:18:31.118Z,5.48
2023-04-04T22:20:58.500Z,5.47
2023-04-04T22:23:25.561Z,5.44
2023-04-04T22:25:52.256Z,5.40
2023-04-04T22:28:24.647Z,5.35
2023-04-04T22:30:51.068Z,5.31
2023-04-04T22:33:17.432Z,5.30
2023-04-04T22:35:45.510Z,5.25
2023-04-04T22:38:14.471Z,5.19
2023-04-04T22:40:42.012Z,5.15
2023-04-04T22:43:09.430Z,5.09
2023-04-04T22:45:35.871Z,5.02
2023-04-04T22:48:03.817Z,4.97
2023-04-04T22:50:30.558Z,4.94
2023-04-04T22:52:58.778Z,4.92
2023-04-04T22:55:26.384Z,4.91
2023-04-04T22:57:52.842Z,4.93
2023-04-04T23:00:20.136Z,4.93
2023-04-04T23:02:49.437Z,4.93
2023-04-04T23:05:17.722Z,4.91
2023-04-04T23:07:45.718Z,4.92
2023-04-04T23:10:14.201Z,4.88
2023-04-04T23:12:40.776Z,4.87
2023-04-04T23:15:08.346Z,4.85
2023-04-04T23:17:36.301Z,4.81
2023-04-04T23:20:09.984Z,4.75
2023-04-04T23:22:37.439Z,4.70
2023-04-04T23:25:07.867Z,4.65
2023-04-04T23:27:34.800Z,4.62
2023-04-04T23:30:04.764Z,4.58
2023-04-04T23:32:32.166Z,4.49
2023-04-04T23:34:58.907Z,4.43
2023-04-04T23:37:25.290Z,4.34
2023-04-04T23:39:51.725Z,4.29
2023-04-04T23:42:18.099Z,4.24
2023-04-04T23:44:45.621Z,4.19
2023-04-04T23:47:12.467Z,4.13
2023-04-04T23:49:38.958Z,4.07
2023-04-04T23:52:05.990Z,4.04
2023-04-04T23:54:32.380Z,4.00
2023-04-04T23:56:58.817Z,3.95
2023-04-04T23:59:25.803Z,3.90
